createdAt,value
2022-10-26T00:02:24.430Z,14.00
2022-10-26T00:04:52.543Z,14.00
2022-10-26T00:07:20.499Z,14.00
2022-10-26T00:09:49.886Z,14.00
2022-10-26T00:12:17.894Z,14.10
2022-10-26T00:14:45.872Z,14.10
2022-10-26T00:17:13.878Z,14.10
2022-10-26T00:19:41.996Z,14.10
2022-10-26T00:22:09.952Z,14.10
2022-10-26T00:24:37.954Z,14.10
2022-10-26T00:27:07.300Z,14.10
2022-10-26T00:29:35.291Z,14.10
2022-10-26T00:32:03.307Z,14.10
2022-10-26T00:34:31.277Z,14.10
2022-10-26T00:36:59.339Z,14.10
2022-10-26T00:39:27.363Z,14.10
2022-10-26T00:41:55.580Z,14.10
2022-10-26T00:45:01.665Z,14.20
2022-10-26T00:47:41.044Z,14.20
2022-10-26T00:50:12.662Z,14.20
2022-10-26T00:52:41.269Z,14.10
2022-10-26T00:55:10.054Z,14.20
2022-10-26T00:57:39.926Z,14.20
2022-10-26T01:00:09.954Z,14.20
2022-10-26T01:02:39.692Z,14.20
2022-10-26T01:05:08.832Z,14.20
2022-10-26T01:07:37.588Z,14.20
2022-10-26T01:10:06.870Z,14.20
2022-10-26T01:12:34.940Z,14.20
2022-10-26T01:15:03.069Z,14.20
2022-10-26T01:17:47.945Z,14.20
2022-10-26T01:20:51.654Z,14.10
2022-10-26T01:23:30.769Z,14.10
2022-10-26T01:26:23.560Z,14.20
2022-10-26T01:29:08.581Z,14.20
2022-10-26T01:31:42.772Z,14.20
2022-10-26T01:34:15.430Z,14.20
2022-10-26T01:36:48.542Z,14.20
2022-10-26T01:39:21.184Z,14.30
2022-10-26T01:41:51.584Z,14.30
2022-10-26T01:44:26.100Z,14.30
2022-10-26T01:46:56.766Z,14.30
2022-10-26T01:49:27.656Z,14.30
2022-10-26T01:51:55.688Z,14.30
2022-10-26T01:54:23.807Z,14.30
2022-10-26T01:56:54.862Z,14.30
2022-10-26T01:59:48.129Z,14.30
2022-10-26T02:03:02.149Z,14.30
2022-10-26T02:05:42.315Z,14.30
2022-10-26T02:08:26.596Z,14.30
2022-10-26T02:11:06.007Z,14.40
2022-10-26T02:13:42.124Z,14.40
2022-10-26T02:16:20.687Z,14.50
2022-10-26T02:18:57.598Z,14.50
2022-10-26T02:21:29.683Z,14.50
2022-10-26T02:24:00.503Z,14.50
2022-10-26T02:26:31.281Z,14.50
2022-10-26T02:29:05.859Z,14.50
2022-10-26T02:31:37.394Z,14.50
2022-10-26T02:34:10.338Z,14.50
2022-10-26T02:36:45.419Z,14.50
2022-10-26T02:39:15.606Z,14.50
2022-10-26T02:41:46.173Z,14.50
2022-10-26T02:44:19.564Z,14.50
2022-10-26T02:46:48.035Z,14.50
2022-10-26T02:49:17.472Z,14.50
2022-10-26T02:51:50.370Z,14.50
2022-10-26T02:54:27.542Z,14.50
2022-10-26T02:56:58.799Z,14.50
2022-10-26T02:59:30.582Z,14.60
2022-10-26T03:01:59.309Z,14.60
2022-10-26T03:04:33.254Z,14.60
2022-10-26T03:07:01.765Z,14.60
2022-10-26T03:09:30.047Z,14.60
2022-10-26T03:11:58.017Z,14.60
2022-10-26T03:14:25.995Z,14.60
2022-10-26T03:16:54.009Z,14.60
2022-10-26T03:19:22.039Z,14.60
2022-10-26T03:21:51.351Z,14.60
2022-10-26T03:24:19.387Z,14.60
2022-10-26T03:26:47.370Z,14.70
2022-10-26T03:29:15.363Z,14.70
2022-10-26T03:31:43.346Z,14.70
2022-10-26T03:34:11.317Z,14.60
2022-10-26T03:36:39.296Z,14.70
2022-10-26T03:39:08.632Z,14.70
2022-10-26T03:41:36.587Z,14.70
2022-10-26T03:44:04.641Z,14.70
2022-10-26T03:46:32.603Z,14.70
2022-10-26T03:49:00.581Z,14.70
2022-10-26T03:51:29.597Z,14.70
2022-10-26T03:53:57.610Z,14.70
2022-10-26T03:56:27.006Z,14.70
2022-10-26T03:58:55.000Z,14.70
2022-10-26T04:01:23.208Z,14.80
2022-10-26T04:03:51.226Z,14.70
2022-10-26T04:06:19.180Z,14.80
2022-10-26T04:08:47.154Z,14.80
2022-10-26T04:11:15.127Z,14.80
2022-10-26T04:13:44.446Z,14.80
2022-10-26T04:16:12.413Z,14.80
2022-10-26T04:18:40.345Z,14.80
2022-10-26T04:21:08.329Z,14.80
2022-10-26T04:23:36.300Z,14.80
2022-10-26T04:26:06.094Z,14.80
2022-10-26T04:28:34.099Z,14.80
2022-10-26T04:31:03.401Z,14.90
2022-10-26T04:33:31.600Z,14.90
2022-10-26T04:36:02.910Z,14.90
2022-10-26T04:38:30.839Z,14.90
2022-10-26T04:40:58.922Z,14.90
2022-10-26T04:43:26.866Z,14.90
2022-10-26T04:45:56.562Z,14.90
2022-10-26T04:48:26.532Z,15.00
2022-10-26T04:50:54.511Z,15.00
2022-10-26T04:53:22.458Z,14.90
2022-10-26T04:55:50.470Z,15.00
2022-10-26T04:58:18.438Z,15.00
2022-10-26T05:00:46.436Z,15.00
2022-10-26T05:03:14.471Z,15.00
2022-10-26T05:05:43.859Z,15.00
2022-10-26T05:08:11.837Z,14.90
2022-10-26T05:10:39.823Z,14.90
2022-10-26T05:13:07.837Z,14.90
2022-10-26T05:15:35.822Z,14.90
2022-10-26T05:18:06.427Z,14.90
2022-10-26T05:20:35.750Z,14.90
2022-10-26T05:23:07.226Z,14.90
2022-10-26T05:25:37.423Z,14.90
2022-10-26T05:28:08.004Z,14.90
2022-10-26T05:30:36.006Z,14.90
2022-10-26T05:33:04.158Z,14.90
2022-10-26T05:35:32.883Z,14.90
2022-10-26T05:38:01.972Z,15.00
2022-10-26T05:40:31.278Z,15.00
2022-10-26T05:43:02.009Z,15.00
2022-10-26T05:45:30.344Z,15.00
2022-10-26T05:48:01.606Z,15.00
2022-10-26T05:50:31.042Z,15.00
2022-10-26T05:52:59.091Z,15.00
2022-10-26T05:55:27.800Z,15.00
2022-10-26T05:57:57.744Z,15.10
2022-10-26T06:00:27.699Z,15.10
2022-10-26T06:03:08.570Z,15.00
2022-10-26T06:05:42.572Z,15.00
2022-10-26T06:08:12.565Z,15.10
2022-10-26T06:10:41.436Z,15.10
2022-10-26T06:13:11.383Z,15.10
2022-10-26T06:15:50.933Z,15.10
2022-10-26T06:18:26.341Z,15.10
2022-10-26T06:21:11.725Z,15.10
2022-10-26T06:23:48.692Z,15.10
2022-10-26T06:26:29.166Z,15.10
2022-10-26T06:29:04.763Z,15.10
2022-10-26T06:31:32.759Z,15.10
2022-10-26T06:34:01.627Z,15.10
2022-10-26T06:36:30.398Z,15.20
2022-10-26T06:39:03.341Z,15.20
2022-10-26T06:41:34.122Z,15.20
2022-10-26T06:44:04.883Z,15.20
2022-10-26T06:46:39.051Z,15.20
2022-10-26T06:49:14.931Z,15.30
2022-10-26T06:51:48.003Z,15.30
2022-10-26T06:54:24.324Z,15.30
2022-10-26T06:56:53.542Z,15.30
2022-10-26T06:59:34.614Z,15.20
2022-10-26T07:02:05.651Z,15.20
2022-10-26T07:04:34.953Z,15.20
2022-10-26T07:07:04.155Z,15.20
2022-10-26T07:09:32.226Z,15.20
2022-10-26T07:12:00.413Z,15.10
2022-10-26T07:14:29.882Z,15.10
2022-10-26T07:16:57.981Z,15.10
2022-10-26T07:19:25.981Z,15.10
2022-10-26T07:21:56.626Z,15.10
2022-10-26T07:24:24.742Z,15.10
2022-10-26T07:26:55.560Z,15.10
2022-10-26T07:29:23.936Z,15.10
2022-10-26T07:34:21.913Z,15.10
2022-10-26T07:36:51.644Z,15.20
2022-10-26T07:39:19.862Z,15.20
2022-10-26T07:41:48.130Z,15.20
2022-10-26T07:44:16.113Z,15.20
2022-10-26T07:46:44.202Z,15.20
2022-10-26T07:49:16.273Z,15.20
2022-10-26T07:51:47.408Z,15.20
2022-10-26T07:54:15.466Z,15.30
2022-10-26T07:56:43.553Z,15.30
2022-10-26T07:59:13.111Z,15.30
2022-10-26T08:01:41.374Z,15.40
2022-10-26T08:04:09.681Z,15.40
2022-10-26T08:06:39.095Z,15.40
2022-10-26T08:09:07.391Z,15.40
2022-10-26T08:11:37.000Z,15.50
2022-10-26T08:14:05.522Z,15.50
2022-10-26T08:16:34.828Z,15.60
2022-10-26T08:19:02.822Z,15.60
2022-10-26T08:21:46.142Z,15.60
2022-10-26T08:24:15.580Z,15.70
2022-10-26T08:26:43.783Z,15.70
2022-10-26T08:29:11.821Z,15.80
2022-10-26T08:31:39.888Z,15.80
2022-10-26T08:34:07.973Z,15.90
2022-10-26T08:36:36.074Z,16.00
2022-10-26T08:39:04.168Z,16.00
2022-10-26T08:41:38.837Z,16.10
2022-10-26T08:44:18.959Z,16.20
2022-10-26T08:46:53.398Z,16.30
2022-10-26T08:49:25.306Z,16.40
2022-10-26T08:51:59.893Z,16.60
2022-10-26T08:54:39.878Z,16.60
2022-10-26T08:57:32.609Z,16.60
2022-10-26T09:00:03.929Z,16.70
2022-10-26T09:02:32.018Z,16.70
2022-10-26T09:05:01.221Z,16.70
2022-10-26T09:07:41.168Z,16.70
2022-10-26T09:10:23.153Z,16.80
2022-10-26T09:12:59.127Z,16.80
2022-10-26T09:15:37.584Z,16.80
2022-10-26T09:18:17.041Z,16.80
2022-10-26T09:21:06.508Z,16.90
2022-10-26T09:23:49.098Z,16.90
2022-10-26T09:26:29.064Z,16.90
2022-10-26T09:29:02.435Z,16.80
2022-10-26T09:31:43.145Z,16.80
2022-10-26T09:34:21.600Z,16.90
2022-10-26T09:36:54.440Z,16.80
2022-10-26T09:39:31.018Z,16.90
2022-10-26T09:42:02.083Z,16.90
2022-10-26T09:44:37.138Z,16.80
2022-10-26T09:47:13.996Z,16.80
2022-10-26T09:49:48.610Z,16.90
2022-10-26T09:52:17.243Z,16.90
2022-10-26T09:54:45.350Z,17.00
2022-10-26T09:57:19.028Z,17.20
2022-10-26T09:59:49.908Z,17.20
2022-10-26T10:02:35.076Z,17.30
2022-10-26T10:05:03.442Z,17.40
2022-10-26T10:07:32.975Z,17.50
2022-10-26T10:10:10.617Z,17.60
2022-10-26T10:12:38.701Z,17.70
2022-10-26T10:15:19.431Z,17.80
2022-10-26T10:17:53.247Z,17.80
2022-10-26T10:20:23.930Z,17.80
2022-10-26T10:22:56.683Z,17.80
2022-10-26T10:25:35.790Z,17.90
2022-10-26T10:30:59.418Z,18.10
2022-10-26T10:33:36.005Z,18.10
2022-10-26T10:36:07.411Z,18.20
2022-10-26T10:38:40.378Z,18.30
2022-10-26T10:41:26.918Z,18.30
2022-10-26T10:44:06.389Z,18.40
2022-10-26T10:46:37.658Z,18.40
2022-10-26T10:49:07.566Z,18.60
2022-10-26T10:51:41.128Z,18.70
2022-10-26T10:54:27.384Z,18.70
2022-10-26T10:56:58.782Z,18.70
2022-10-26T10:59:57.105Z,18.80
2022-10-26T11:03:05.909Z,18.80
2022-10-26T11:05:51.611Z,18.90
2022-10-26T11:08:24.092Z,18.80
2022-10-26T11:10:59.166Z,18.90
2022-10-26T11:13:31.826Z,18.90
2022-10-26T11:16:04.173Z,18.90
2022-10-26T11:18:37.322Z,18.90
2022-10-26T11:21:15.110Z,18.90
2022-10-26T11:23:48.869Z,19.00
2022-10-26T11:26:23.315Z,19.00
2022-10-26T11:28:56.741Z,19.10
2022-10-26T11:31:29.149Z,19.10
2022-10-26T11:34:15.762Z,19.10
2022-10-26T11:36:47.790Z,19.10
2022-10-26T11:39:24.813Z,19.10
2022-10-26T11:42:02.289Z,19.20
2022-10-26T11:44:36.957Z,19.20
2022-10-26T11:47:10.942Z,19.20
2022-10-26T11:49:46.055Z,19.40
2022-10-26T11:52:19.361Z,19.50
2022-10-26T11:54:52.144Z,19.60
2022-10-26T11:57:21.535Z,19.70
2022-10-26T11:59:53.536Z,19.90
2022-10-26T12:02:23.580Z,20.10
2022-10-26T12:04:57.347Z,20.30
2022-10-26T12:07:30.137Z,20.40
2022-10-26T12:09:59.841Z,20.50
2022-10-26T12:12:37.327Z,20.60
2022-10-26T12:15:17.757Z,20.70
2022-10-26T12:17:52.389Z,20.80
2022-10-26T12:20:52.846Z,20.80
2022-10-26T12:23:33.842Z,20.90
2022-10-26T12:26:49.538Z,21.00
2022-10-26T12:29:30.248Z,21.00
2022-10-26T12:31:58.572Z,21.10
2022-10-26T12:35:04.087Z,21.10
2022-10-26T12:37:38.212Z,21.00
2022-10-26T12:40:43.968Z,21.10
2022-10-26T12:43:38.174Z,21.10
2022-10-26T12:46:43.025Z,21.10
2022-10-26T12:49:43.697Z,21.00
2022-10-26T12:52:45.490Z,21.00
2022-10-26T12:55:41.576Z,21.10
2022-10-26T12:58:48.883Z,21.20
2022-10-26T13:01:40.387Z,21.40
2022-10-26T13:04:20.253Z,21.60
2022-10-26T13:07:19.514Z,21.80
2022-10-26T13:10:02.793Z,21.90
2022-10-26T13:12:39.165Z,22.00
2022-10-26T13:15:21.554Z,22.10
2022-10-26T13:17:57.389Z,22.20
2022-10-26T13:20:25.632Z,22.20
2022-10-26T13:22:54.361Z,22.20
2022-10-26T13:25:27.661Z,22.20
2022-10-26T13:28:04.671Z,22.10
2022-10-26T13:30:46.468Z,22.10
2022-10-26T13:33:27.636Z,22.10
2022-10-26T13:36:00.674Z,22.00
2022-10-26T13:38:33.935Z,22.00
2022-10-26T13:41:08.692Z,22.00
2022-10-26T13:43:38.595Z,22.00
2022-10-26T13:46:07.262Z,22.20
2022-10-26T13:48:40.227Z,22.30
2022-10-26T13:51:20.201Z,22.40
2022-10-26T13:53:53.227Z,22.50
2022-10-26T13:56:29.327Z,22.50
2022-10-26T13:59:03.450Z,22.50
2022-10-26T14:01:32.623Z,22.40
2022-10-26T14:04:00.905Z,22.30
2022-10-26T15:10:22.723Z,20.80
2022-10-26T15:12:50.717Z,20.80
2022-10-26T15:16:09.835Z,20.80
2022-10-26T15:18:40.083Z,20.70
2022-10-26T15:21:22.941Z,20.70
2022-10-26T15:23:51.651Z,20.60
2022-10-26T15:26:21.648Z,20.60
2022-10-26T15:28:49.912Z,20.50
2022-10-26T15:35:23.959Z,20.40
2022-10-26T15:37:53.345Z,20.30
2022-10-26T15:40:21.885Z,20.30
2022-10-26T15:42:53.483Z,20.20
2022-10-26T15:45:23.383Z,20.10
2022-10-26T15:47:53.034Z,20.10
2022-10-26T15:50:23.380Z,19.90
2022-10-26T15:52:56.025Z,19.80
2022-10-26T15:55:24.147Z,19.70
2022-10-26T15:57:53.455Z,19.60
2022-10-26T16:00:21.687Z,19.50
2022-10-26T16:02:49.742Z,19.50
2022-10-26T16:05:18.209Z,19.50
2022-10-26T16:07:48.970Z,19.40
2022-10-26T16:10:21.482Z,19.30
2022-10-26T16:12:50.232Z,19.30
2022-10-26T16:15:22.408Z,19.20
2022-10-26T16:17:51.214Z,19.10
2022-10-26T16:20:22.730Z,19.00
2022-10-26T16:22:52.389Z,18.90
2022-10-26T16:25:23.819Z,18.80
2022-10-26T16:27:52.694Z,18.80
2022-10-26T16:30:25.855Z,18.70
2022-10-26T16:32:56.253Z,18.60
2022-10-26T16:35:24.263Z,18.50
2022-10-26T16:37:52.243Z,18.50
2022-10-26T16:40:20.389Z,18.40
2022-10-26T16:42:48.630Z,18.40
2022-10-26T16:45:17.108Z,18.30
2022-10-26T16:47:46.374Z,18.30
2022-10-26T16:50:14.833Z,18.20
2022-10-26T16:52:43.022Z,18.10
2022-10-26T16:55:11.259Z,18.10
2022-10-26T16:57:39.282Z,18.10
2022-10-26T17:00:08.480Z,18.00
2022-10-26T17:02:36.618Z,18.00
2022-10-26T17:05:07.662Z,17.90
2022-10-26T17:07:36.221Z,17.90
2022-10-26T17:10:04.943Z,17.80
2022-10-26T17:12:32.968Z,17.80
2022-10-26T17:15:01.528Z,17.80
2022-10-26T17:17:29.595Z,17.90
2022-10-26T17:19:57.877Z,17.90
2022-10-26T17:22:27.281Z,17.80
2022-10-26T17:24:55.250Z,17.80
2022-10-26T17:27:23.215Z,17.70
2022-10-26T17:29:51.198Z,17.70
2022-10-26T17:32:19.177Z,17.60
2022-10-26T17:34:47.152Z,17.60
2022-10-26T17:37:15.265Z,17.60
2022-10-26T17:39:45.172Z,17.50
2022-10-26T17:42:13.173Z,17.50
2022-10-26T17:44:41.155Z,17.50
2022-10-26T17:47:09.851Z,17.40
2022-10-26T17:49:37.897Z,17.40
2022-10-26T17:52:06.862Z,17.40
2022-10-26T17:54:34.851Z,17.40
2022-10-26T17:57:04.317Z,17.40
2022-10-26T17:59:32.389Z,17.40
2022-10-26T18:02:00.405Z,17.40
2022-10-26T18:04:28.547Z,17.50
2022-10-26T18:06:56.643Z,17.50
2022-10-26T18:09:24.590Z,17.40
2022-10-26T18:11:55.052Z,17.40
2022-10-26T18:14:25.420Z,17.40
2022-10-26T18:16:53.504Z,17.30
2022-10-26T18:19:21.790Z,17.30
2022-10-26T18:21:49.803Z,17.30
2022-10-26T18:24:17.817Z,17.30
2022-10-26T18:26:45.825Z,17.30
2022-10-26T18:29:14.659Z,17.30
2022-10-26T18:31:45.431Z,17.20
2022-10-26T18:34:13.647Z,17.20
2022-10-26T18:36:41.712Z,17.10
2022-10-26T18:39:09.743Z,17.10
2022-10-26T18:41:37.775Z,17.10
2022-10-26T18:44:06.062Z,17.00
2022-10-26T18:46:39.663Z,17.00
2022-10-26T18:49:10.872Z,17.00
2022-10-26T18:51:38.901Z,17.00
2022-10-26T18:54:07.009Z,17.00
2022-10-26T18:56:34.982Z,16.90
2022-10-26T18:59:03.111Z,16.90
2022-10-26T19:01:33.695Z,16.90
2022-10-26T19:04:03.263Z,16.90
2022-10-26T19:06:35.341Z,16.90
2022-10-26T19:09:03.985Z,16.80
2022-10-26T19:11:32.419Z,16.80
2022-10-26T19:14:01.032Z,16.80
2022-10-26T19:16:48.129Z,16.80
2022-10-26T19:19:17.068Z,16.80
2022-10-26T19:21:47.411Z,16.80
2022-10-26T19:24:16.784Z,16.80
2022-10-26T19:26:46.653Z,16.80
2022-10-26T19:29:16.758Z,16.80
2022-10-26T19:31:45.491Z,16.80
2022-10-26T19:34:14.989Z,16.80
2022-10-26T19:36:44.946Z,16.80
2022-10-26T19:39:15.944Z,16.80
2022-10-26T19:41:44.383Z,16.70
2022-10-26T19:44:13.997Z,16.70
2022-10-26T19:46:43.131Z,16.70
2022-10-26T19:49:12.475Z,16.70
2022-10-26T19:51:40.561Z,16.70
2022-10-26T19:54:08.614Z,16.70
2022-10-26T19:56:38.537Z,16.60
2022-10-26T19:59:08.068Z,16.60
2022-10-26T20:01:36.396Z,16.60
2022-10-26T20:04:05.947Z,16.60
2022-10-26T20:06:33.936Z,16.50
2022-10-26T20:09:02.363Z,16.50
2022-10-26T20:11:32.091Z,16.50
2022-10-26T20:14:01.509Z,16.50
2022-10-26T20:16:29.531Z,16.40
2022-10-26T20:18:57.522Z,16.40
2022-10-26T20:21:25.498Z,16.40
2022-10-26T20:23:53.496Z,16.30
2022-10-26T20:26:23.331Z,16.30
2022-10-26T20:28:52.293Z,16.30
2022-10-26T20:31:21.648Z,16.30
2022-10-26T20:33:52.490Z,16.40
2022-10-26T20:36:20.600Z,16.40
2022-10-26T20:38:49.101Z,16.40
2022-10-26T20:41:17.766Z,16.30
2022-10-26T20:43:46.285Z,16.30
2022-10-26T20:46:24.223Z,16.20
2022-10-26T20:48:53.531Z,16.20
2022-10-26T20:51:26.946Z,16.20
2022-10-26T20:54:04.587Z,16.20
2022-10-26T20:56:34.333Z,16.10
2022-10-26T20:59:03.971Z,16.10
2022-10-26T21:01:35.363Z,16.10
2022-10-26T21:04:04.824Z,16.00
2022-10-26T21:06:39.871Z,16.00
2022-10-26T21:09:09.087Z,16.00
2022-10-26T21:11:37.414Z,16.00
2022-10-26T21:14:06.371Z,15.90
2022-10-26T21:16:35.736Z,15.90
2022-10-26T21:19:04.935Z,15.80
2022-10-26T21:21:32.956Z,15.80
2022-10-26T21:24:00.904Z,15.90
2022-10-26T21:26:28.870Z,15.90
2022-10-26T21:28:56.863Z,15.90
2022-10-26T21:31:24.997Z,15.90
2022-10-26T21:33:54.367Z,15.90
2022-10-26T21:36:22.946Z,15.80
2022-10-26T21:38:50.958Z,15.80
2022-10-26T21:41:20.222Z,15.80
2022-10-26T21:43:55.965Z,15.80
2022-10-26T21:46:31.653Z,15.80
2022-10-26T21:49:00.999Z,15.70
2022-10-26T21:51:29.010Z,15.70
2022-10-26T21:53:57.935Z,15.70
2022-10-26T21:56:25.931Z,15.70
2022-10-26T21:58:53.866Z,15.70
2022-10-26T22:01:23.541Z,15.70
2022-10-26T22:03:51.931Z,15.80
2022-10-26T22:06:23.848Z,15.70
2022-10-26T22:08:51.831Z,15.60
2022-10-26T22:11:22.105Z,15.50
2022-10-26T22:13:51.443Z,15.50
2022-10-26T22:16:21.713Z,15.40
2022-10-26T22:18:51.149Z,15.30
2022-10-26T22:21:20.279Z,15.40
2022-10-26T22:23:49.635Z,15.40
2022-10-26T22:26:19.149Z,15.40
2022-10-26T22:28:49.082Z,15.30
2022-10-26T22:31:20.085Z,15.30
2022-10-26T22:33:52.640Z,15.30
2022-10-26T22:36:20.839Z,15.30
2022-10-26T22:38:50.807Z,15.20
2022-10-26T22:41:20.742Z,15.20
2022-10-26T22:43:50.713Z,15.20
2022-10-26T22:46:20.671Z,15.20
2022-10-26T22:48:53.350Z,15.20
2022-10-26T22:51:22.604Z,15.20
2022-10-26T22:53:54.665Z,15.10
2022-10-26T22:56:24.124Z,15.10
2022-10-26T22:58:52.965Z,15.10
2022-10-26T23:01:22.843Z,15.10
2022-10-26T23:03:51.264Z,15.10
2022-10-26T23:06:20.674Z,15.10
2022-10-26T23:08:48.813Z,15.10
2022-10-26T23:11:21.597Z,15.10
2022-10-26T23:13:52.737Z,15.00
2022-10-26T23:16:20.729Z,15.00
2022-10-26T23:18:49.342Z,15.00
2022-10-26T23:21:18.342Z,15.00
2022-10-26T23:23:46.773Z,14.90
2022-10-26T23:26:18.222Z,14.90
2022-10-26T23:28:46.634Z,15.00
2022-10-26T23:31:17.089Z,15.00
2022-10-26T23:33:45.441Z,14.90
2022-10-26T23:36:13.686Z,14.90
2022-10-26T23:38:41.667Z,14.90
2022-10-26T23:41:12.772Z,14.90
2022-10-26T23:43:42.676Z,15.00
2022-10-26T23:46:10.783Z,14.90
2022-10-26T23:48:38.817Z,14.90
2022-10-26T23:51:06.960Z,14.90
2022-10-26T23:53:34.946Z,14.90
2022-10-26T23:56:03.005Z,15.00
2022-10-26T23:58:30.929Z,15.00
